sensor_id;sensor_type;location;lat;lon;timestamp;pressure;altitude;pressure_sealevel;temperature;humidity
64189;BME280;50493;50.970;10.082;2024-02-21T00:01:18;99981.13;;;9.09;66.79
64189;BME280;50493;50.970;10.082;2024-02-21T00:03:46;99981.97;;;9.19;54.98
64189;BME280;50493;50.970;10.082;2024-02-21T00:06:11;99983.78;;;9.05;66.48
64189;BME280;50493;50.970;10.082;2024-02-21T00:08:37;99980.19;;;9.26;55.98
64189;BME280;50493;50.970;10.082;2024-02-21T00:11:02;99970.63;;;9.22;53.59
64189;BME280;50493;50.970;10.082;2024-02-21T00:13:28;99967.94;;;9.31;56.62
64189;BME280;50493;50.970;10.082;2024-02-21T00:15:54;99967.22;;;9.10;55.57
64189;BME280;50493;50.970;10.082;2024-02-21T00:18:19;99967.31;;;8.95;62.88
64189;BME280;50493;50.970;10.082;2024-02-21T00:20:46;99950.09;;;8.57;54.96
64189;BME280;50493;50.970;10.082;2024-02-21T00:23:11;99944.72;;;8.95;55.03
64189;BME280;50493;50.970;10.082;2024-02-21T00:25:37;99946.44;;;8.92;59.83
64189;BME280;50493;50.970;10.082;2024-02-21T00:28:03;99940.38;;;8.98;63.29
64189;BME280;50493;50.970;10.082;2024-02-21T00:30:28;99944.72;;;8.91;59.60
64189;BME280;50493;50.970;10.082;2024-02-21T00:32:53;99954.41;;;8.59;60.07
64189;BME280;50493;50.970;10.082;2024-02-21T00:35:19;99946.41;;;9.01;55.98
64189;BME280;50493;50.970;10.082;2024-02-21T00:37:45;99944.63;;;9.09;55.08
64189;BME280;50493;50.970;10.082;2024-02-21T00:40:11;99950.88;;;8.73;62.53
64189;BME280;50493;50.970;10.082;2024-02-21T00:42:36;99937.91;;;8.62;57.08
64189;BME280;50493;50.970;10.082;2024-02-21T00:45:02;99930.06;;;8.70;58.89
64189;BME280;50493;50.970;10.082;2024-02-21T00:47:27;99928.28;;;8.76;57.90
64189;BME280;50493;50.970;10.082;2024-02-21T00:49:53;99913.44;;;8.85;57.97
64189;BME280;50493;50.970;10.082;2024-02-21T00:52:18;99916.00;;;8.94;59.26
64189;BME280;50493;50.970;10.082;2024-02-21T00:54:45;99913.31;;;9.14;58.35
64189;BME280;50493;50.970;10.082;2024-02-21T00:57:10;99906.41;;;9.02;65.34
64189;BME280;50493;50.970;10.082;2024-02-21T00:59:35;99918.53;;;9.09;58.92
64189;BME280;50493;50.970;10.082;2024-02-21T01:02:01;99914.28;;;8.96;62.37
64189;BME280;50493;50.970;10.082;2024-02-21T01:04:26;99913.19;;;9.28;58.54
64189;BME280;50493;50.970;10.082;2024-02-21T01:06:51;99911.38;;;9.36;56.43
64189;BME280;50493;50.970;10.082;2024-02-21T01:09:17;99917.66;;;9.15;65.36
64189;BME280;50493;50.970;10.082;2024-02-21T01:11:43;99911.50;;;9.21;57.69
64189;BME280;50493;50.970;10.082;2024-02-21T01:14:08;99906.94;;;9.49;57.14
64189;BME280;50493;50.970;10.082;2024-02-21T01:16:34;99908.75;;;9.38;56.40
64189;BME280;50493;50.970;10.082;2024-02-21T01:18:59;99900.06;;;9.39;57.07
64189;BME280;50493;50.970;10.082;2024-02-21T01:21:25;99904.53;;;9.26;61.43
64189;BME280;50493;50.970;10.082;2024-02-21T01:23:50;99908.75;;;9.38;57.01
64189;BME280;50493;50.970;10.082;2024-02-21T01:26:15;99911.50;;;9.21;57.04
64189;BME280;50493;50.970;10.082;2024-02-21T01:28:42;99917.72;;;9.03;64.28
64189;BME280;50493;50.970;10.082;2024-02-21T01:31:07;99930.81;;;8.95;68.24
64189;BME280;50493;50.970;10.082;2024-02-21T01:33:33;99928.72;;;9.43;57.62
64189;BME280;50493;50.970;10.082;2024-02-21T01:36:00;99932.56;;;8.88;59.94
64189;BME280;50493;50.970;10.082;2024-02-21T01:38:25;99941.25;;;8.86;59.44
64189;BME280;50493;50.970;10.082;2024-02-21T01:40:51;99940.19;;;9.24;60.04
64189;BME280;50493;50.970;10.082;2024-02-21T01:43:17;99935.75;;;9.32;56.18
64189;BME280;50493;50.970;10.082;2024-02-21T01:45:48;99929.84;;;9.07;56.43
64189;BME280;50493;50.970;10.082;2024-02-21T01:48:14;99922.09;;;9.01;64.80
64189;BME280;50493;50.970;10.082;2024-02-21T01:50:40;99920.19;;;9.23;57.99
64189;BME280;50493;50.970;10.082;2024-02-21T01:53:05;99916.84;;;9.04;61.76
64189;BME280;50493;50.970;10.082;2024-02-21T01:55:31;99903.84;;;8.96;56.60
64189;BME280;50493;50.970;10.082;2024-02-21T01:57:56;99896.03;;;8.96;57.98
64189;BME280;50493;50.970;10.082;2024-02-21T02:00:22;99881.91;;;9.25;57.92
64189;BME280;50493;50.970;10.082;2024-02-21T02:02:50;99883.84;;;8.98;58.75
64189;BME280;50493;50.970;10.082;2024-02-21T02:05:16;99891.59;;;9.10;58.44
64189;BME280;50493;50.970;10.082;2024-02-21T02:07:42;99890.66;;;9.18;56.90
64189;BME280;50493;50.970;10.082;2024-02-21T02:10:08;99892.34;;;9.25;55.68
64189;BME280;50493;50.970;10.082;2024-02-21T02:12:35;99890.72;;;9.11;59.11
64189;BME280;50493;50.970;10.082;2024-02-21T02:15:01;99891.56;;;9.17;59.11
64189;BME280;50493;50.970;10.082;2024-02-21T02:17:29;99890.81;;;8.99;57.99
64189;BME280;50493;50.970;10.082;2024-02-21T02:19:56;99881.97;;;9.16;56.13
64189;BME280;50493;50.970;10.082;2024-02-21T02:22:23;99874.97;;;9.24;59.50
64189;BME280;50493;50.970;10.082;2024-02-21T02:24:54;99873.19;;;9.29;56.16
64189;BME280;50493;50.970;10.082;2024-02-21T02:27:20;99873.16;;;9.32;55.70
64189;BME280;50493;50.970;10.082;2024-02-21T02:29:45;99865.28;;;9.38;55.47
64189;BME280;50493;50.970;10.082;2024-02-21T02:32:11;99866.34;;;9.16;57.55
64189;BME280;50493;50.970;10.082;2024-02-21T02:34:36;99862.97;;;9.04;62.19
64189;BME280;50493;50.970;10.082;2024-02-21T02:37:02;99862.00;;;9.13;59.51
64189;BME280;50493;50.970;10.082;2024-02-21T02:39:27;99851.47;;;9.24;56.18
64189;BME280;50493;50.970;10.082;2024-02-21T02:41:54;99840.19;;;9.25;57.40
64189;BME280;50493;50.970;10.082;2024-02-21T02:44:19;99837.00;;;8.83;59.12
64189;BME280;50493;50.970;10.082;2024-02-21T02:46:44;99831.75;;;8.89;58.74
64189;BME280;50493;50.970;10.082;2024-02-21T02:49:10;99831.69;;;8.98;57.51
64189;BME280;50493;50.970;10.082;2024-02-21T02:51:35;99832.72;;;8.74;58.34
64189;BME280;50493;50.970;10.082;2024-02-21T02:54:01;99830.31;;;8.41;66.08
64189;BME280;50493;50.970;10.082;2024-02-21T02:56:27;99831.84;;;8.70;58.03
64189;BME280;50493;50.970;10.082;2024-02-21T02:58:53;99827.50;;;8.78;58.44
64189;BME280;50493;50.970;10.082;2024-02-21T03:01:19;99820.47;;;8.84;64.27
64189;BME280;50493;50.970;10.082;2024-02-21T03:03:44;99822.41;;;8.57;64.29
64189;BME280;50493;50.970;10.082;2024-02-21T03:06:12;99814.31;;;8.94;57.71
64189;BME280;50493;50.970;10.082;2024-02-21T03:08:37;99807.56;;;8.68;58.27
64189;BME280;50493;50.970;10.082;2024-02-21T03:11:03;99805.66;;;8.89;57.58
64189;BME280;50493;50.970;10.082;2024-02-21T03:13:28;99800.38;;;9.04;57.86
64189;BME280;50493;50.970;10.082;2024-02-21T03:15:55;99797.13;;;8.68;58.34
64189;BME280;50493;50.970;10.082;2024-02-21T03:18:20;99782.38;;;8.66;58.38
64189;BME280;50493;50.970;10.082;2024-02-21T03:20:46;99772.75;;;8.75;57.44
64189;BME280;50493;50.970;10.082;2024-02-21T03:23:11;99771.25;;;8.45;58.22
64189;BME280;50493;50.970;10.082;2024-02-21T03:25:36;99770.25;;;8.61;61.69
64189;BME280;50493;50.970;10.082;2024-02-21T03:28:02;99766.88;;;8.49;58.26
64189;BME280;50493;50.970;10.082;2024-02-21T03:30:27;99755.53;;;8.56;57.97
64189;BME280;50493;50.970;10.082;2024-02-21T03:32:54;99760.88;;;8.37;58.32
64189;BME280;50493;50.970;10.082;2024-02-21T03:35:20;99769.56;;;8.35;61.95
64189;BME280;50493;50.970;10.082;2024-02-21T03:37:45;99776.69;;;8.03;58.98
64189;BME280;50493;50.970;10.082;2024-02-21T03:40:11;99769.75;;;8.02;59.58
64189;BME280;50493;50.970;10.082;2024-02-21T03:42:37;99774.09;;;8.03;61.21
64189;BME280;50493;50.970;10.082;2024-02-21T03:45:02;99777.69;;;7.71;62.93
64189;BME280;50493;50.970;10.082;2024-02-21T03:47:28;99784.50;;;8.03;63.28
64189;BME280;50493;50.970;10.082;2024-02-21T03:49:55;99783.53;;;8.23;62.87
64189;BME280;50493;50.970;10.082;2024-02-21T03:52:20;99780.88;;;8.32;59.48
64189;BME280;50493;50.970;10.082;2024-02-21T03:54:46;99769.47;;;8.52;59.30
64189;BME280;50493;50.970;10.082;2024-02-21T03:57:11;99755.69;;;8.34;59.58
64189;BME280;50493;50.970;10.082;2024-02-21T03:59:37;99773.94;;;8.34;61.94
64189;BME280;50493;50.970;10.082;2024-02-21T04:02:04;99769.63;;;8.30;59.63
64189;BME280;50493;50.970;10.082;2024-02-21T04:04:33;99760.88;;;8.37;60.63
64189;BME280;50493;50.970;10.082;2024-02-21T04:07:00;99759.94;;;8.49;63.43
64189;BME280;50493;50.970;10.082;2024-02-21T04:09:25;99760.06;;;8.27;65.55
64189;BME280;50493;50.970;10.082;2024-02-21T04:11:50;99758.28;;;8.31;65.73
64189;BME280;50493;50.970;10.082;2024-02-21T04:14:16;99755.66;;;8.39;62.75
64189;BME280;50493;50.970;10.082;2024-02-21T04:16:41;99760.88;;;8.37;60.70
64189;BME280;50493;50.970;10.082;2024-02-21T04:19:06;99762.63;;;8.32;61.58
64189;BME280;50493;50.970;10.082;2024-02-21T04:21:32;99756.47;;;8.47;60.32
64189;BME280;50493;50.970;10.082;2024-02-21T04:23:59;99764.09;;;8.73;57.84
64189;BME280;50493;50.970;10.082;2024-02-21T04:26:24;99764.88;;;8.82;61.65
64189;BME280;50493;50.970;10.082;2024-02-21T04:28:50;99770.97;;;8.80;63.39
64189;BME280;50493;50.970;10.082;2024-02-21T04:31:15;99762.22;;;8.91;60.91
64189;BME280;50493;50.970;10.082;2024-02-21T04:33:40;99761.59;;;8.58;59.83
64189;BME280;50493;50.970;10.082;2024-02-21T04:36:06;99765.72;;;8.84;60.92
64189;BME280;50493;50.970;10.082;2024-02-21T04:38:31;99757.91;;;8.87;57.54
64189;BME280;50493;50.970;10.082;2024-02-21T04:40:58;99753.94;;;8.35;67.09
64189;BME280;50493;50.970;10.082;2024-02-21T04:43:24;99761.50;;;8.72;58.46
64189;BME280;50493;50.970;10.082;2024-02-21T04:45:49;99755.63;;;8.40;65.95
64189;BME280;50493;50.970;10.082;2024-02-21T04:48:15;99753.13;;;8.28;60.53
64189;BME280;50493;50.970;10.082;2024-02-21T04:50:41;99756.47;;;8.44;59.14
64189;BME280;50493;50.970;10.082;2024-02-21T04:53:06;99754.75;;;8.41;65.00
64189;BME280;50493;50.970;10.082;2024-02-21T04:55:31;99753.03;;;8.40;65.85
64189;BME280;50493;50.970;10.082;2024-02-21T04:57:58;99749.63;;;8.31;61.12
64189;BME280;50493;50.970;10.082;2024-02-21T05:00:23;99749.44;;;8.58;59.17
64189;BME280;50493;50.970;10.082;2024-02-21T05:02:49;99750.56;;;8.19;59.94
64189;BME280;50493;50.970;10.082;2024-02-21T05:05:14;99747.94;;;8.25;66.20
64189;BME280;50493;50.970;10.082;2024-02-21T05:07:41;99731.44;;;8.23;60.69
64189;BME280;50493;50.970;10.082;2024-02-21T05:10:08;99718.44;;;8.20;60.82
64189;BME280;50493;50.970;10.082;2024-02-21T05:12:34;99705.44;;;8.17;60.48
64189;BME280;50493;50.970;10.082;2024-02-21T05:15:00;99710.47;;;8.43;60.07
64189;BME280;50493;50.970;10.082;2024-02-21T05:17:26;99706.16;;;8.39;59.46
64189;BME280;50493;50.970;10.082;2024-02-21T05:19:51;99707.25;;;8.05;61.31
64189;BME280;50493;50.970;10.082;2024-02-21T05:22:17;99695.03;;;8.17;62.56
64189;BME280;50493;50.970;10.082;2024-02-21T05:24:42;99703.56;;;8.37;60.36
64189;BME280;50493;50.970;10.082;2024-02-21T05:27:08;99694.16;;;8.16;61.54
64189;BME280;50493;50.970;10.082;2024-02-21T05:29:33;99693.25;;;8.25;62.00
64189;BME280;50493;50.970;10.082;2024-02-21T05:32:00;99691.31;;;8.49;62.58
64189;BME280;50493;50.970;10.082;2024-02-21T05:34:26;99693.03;;;8.50;59.85
64189;BME280;50493;50.970;10.082;2024-02-21T05:36:51;99692.44;;;8.17;61.00
64189;BME280;50493;50.970;10.082;2024-02-21T05:39:17;99700.03;;;8.44;61.27
64189;BME280;50493;50.970;10.082;2024-02-21T05:41:43;99706.00;;;8.57;60.34
64189;BME280;50493;50.970;10.082;2024-02-21T05:44:10;99710.38;;;8.57;60.46
64189;BME280;50493;50.970;10.082;2024-02-21T05:46:35;99711.13;;;8.68;61.69
64189;BME280;50493;50.970;10.082;2024-02-21T05:49:02;99700.78;;;8.59;59.69
64189;BME280;50493;50.970;10.082;2024-02-21T05:51:31;99698.13;;;8.65;59.70
64189;BME280;50493;50.970;10.082;2024-02-21T05:53:57;99699.13;;;8.49;60.49
64189;BME280;50493;50.970;10.082;2024-02-21T05:56:22;99710.41;;;8.51;62.68
64189;BME280;50493;50.970;10.082;2024-02-21T05:58:48;99713.97;;;8.37;62.31
64189;BME280;50493;50.970;10.082;2024-02-21T06:01:13;99719.25;;;8.28;61.66
64189;BME280;50493;50.970;10.082;2024-02-21T06:03:38;99726.97;;;8.42;60.97
64189;BME280;50493;50.970;10.082;2024-02-21T06:06:05;99716.72;;;8.16;62.54
64189;BME280;50493;50.970;10.082;2024-02-21T06:08:31;99715.28;;;7.67;69.28
64189;BME280;50493;50.970;10.082;2024-02-21T06:10:56;99710.75;;;8.01;62.31
64189;BME280;50493;50.970;10.082;2024-02-21T06:13:22;99714.31;;;7.89;64.97
64189;BME280;50493;50.970;10.082;2024-02-21T06:15:47;99708.22;;;7.86;67.13
64189;BME280;50493;50.970;10.082;2024-02-21T06:18:13;99710.88;;;7.76;68.70
64189;BME280;50493;50.970;10.082;2024-02-21T06:20:38;99719.41;;;8.03;63.35
64189;BME280;50493;50.970;10.082;2024-02-21T06:23:06;99719.63;;;7.63;70.91
64189;BME280;50493;50.970;10.082;2024-02-21T06:25:32;99716.84;;;7.97;65.32
64189;BME280;50493;50.970;10.082;2024-02-21T06:27:57;99710.53;;;8.32;63.86
64189;BME280;50493;50.970;10.082;2024-02-21T06:30:23;99719.09;;;8.50;61.07
64189;BME280;50493;50.970;10.082;2024-02-21T06:32:48;99722.97;;;7.90;68.58
64189;BME280;50493;50.970;10.082;2024-02-21T06:35:13;99719.22;;;8.31;62.03
64189;BME280;50493;50.970;10.082;2024-02-21T06:37:39;99714.22;;;8.03;61.57
64189;BME280;50493;50.970;10.082;2024-02-21T06:40:07;99716.78;;;8.08;67.63
64189;BME280;50493;50.970;10.082;2024-02-21T06:42:32;99720.31;;;7.99;69.21
64189;BME280;50493;50.970;10.082;2024-02-21T06:44:58;99720.06;;;8.35;65.05
64189;BME280;50493;50.970;10.082;2024-02-21T06:47:23;99719.13;;;8.46;59.50
64189;BME280;50493;50.970;10.082;2024-02-21T06:49:49;99713.06;;;8.44;62.93
64189;BME280;50493;50.970;10.082;2024-02-21T06:52:15;99709.47;;;8.61;61.74
64189;BME280;50493;50.970;10.082;2024-02-21T06:54:42;99703.94;;;8.92;58.77
64189;BME280;50493;50.970;10.082;2024-02-21T06:57:09;99706.97;;;8.45;66.40
64189;BME280;50493;50.970;10.082;2024-02-21T06:59:34;99701.53;;;8.73;60.19
64189;BME280;50493;50.970;10.082;2024-02-21T07:01:59;99703.31;;;8.68;59.95
64189;BME280;50493;50.970;10.082;2024-02-21T07:04:26;99703.44;;;8.56;59.99
64189;BME280;50493;50.970;10.082;2024-02-21T07:06:52;99707.75;;;8.55;60.99
64189;BME280;50493;50.970;10.082;2024-02-21T07:09:17;99708.34;;;8.90;61.63
64189;BME280;50493;50.970;10.082;2024-02-21T07:11:42;99715.41;;;8.78;59.26
64189;BME280;50493;50.970;10.082;2024-02-21T07:14:09;99720.50;;;8.91;60.01
64189;BME280;50493;50.970;10.082;2024-02-21T07:16:34;99724.19;;;8.62;64.99
64189;BME280;50493;50.970;10.082;2024-02-21T07:19:00;99728.84;;;8.20;67.98
64189;BME280;50493;50.970;10.082;2024-02-21T07:21:25;99727.63;;;8.67;63.43
64189;BME280;50493;50.970;10.082;2024-02-21T07:23:51;99726.63;;;8.87;59.26
64189;BME280;50493;50.970;10.082;2024-02-21T07:26:16;99731.84;;;8.82;62.89
64189;BME280;50493;50.970;10.082;2024-02-21T07:28:41;99714.28;;;9.06;57.87
64189;BME280;50493;50.970;10.082;2024-02-21T07:31:08;99715.13;;;9.11;60.77
64189;BME280;50493;50.970;10.082;2024-02-21T07:33:33;99701.09;;;9.20;58.07
64189;BME280;50493;50.970;10.082;2024-02-21T07:36:00;99704.34;;;9.40;57.14
64189;BME280;50493;50.970;10.082;2024-02-21T07:38:26;99692.25;;;9.33;57.13
64189;BME280;50493;50.970;10.082;2024-02-21T07:40:51;99687.75;;;9.44;56.80
64189;BME280;50493;50.970;10.082;2024-02-21T07:43:16;99689.59;;;9.38;57.42
64189;BME280;50493;50.970;10.082;2024-02-21T07:45:42;99691.38;;;9.36;56.94
64189;BME280;50493;50.970;10.082;2024-02-21T07:48:08;99681.28;;;9.05;57.70
64189;BME280;50493;50.970;10.082;2024-02-21T07:50:34;99681.16;;;9.16;57.17
64189;BME280;50493;50.970;10.082;2024-02-21T07:52:59;99687.28;;;9.11;57.79
64189;BME280;50493;50.970;10.082;2024-02-21T07:55:24;99693.63;;;8.83;58.78
64189;BME280;50493;50.970;10.082;2024-02-21T07:57:50;99681.59;;;8.69;59.05
64189;BME280;50493;50.970;10.082;2024-02-21T08:00:16;99686.19;;;8.39;60.12
64189;BME280;50493;50.970;10.082;2024-02-21T08:02:45;99677.38;;;8.53;61.11
64189;BME280;50493;50.970;10.082;2024-02-21T08:05:11;99675.81;;;8.33;62.76
64189;BME280;50493;50.970;10.082;2024-02-21T08:07:37;99681.09;;;8.24;63.63
64189;BME280;50493;50.970;10.082;2024-02-21T08:10:03;99673.16;;;8.38;61.02
64189;BME280;50493;50.970;10.082;2024-02-21T08:12:29;99679.31;;;8.29;61.48
64189;BME280;50493;50.970;10.082;2024-02-21T08:14:54;99679.28;;;8.35;61.56
64189;BME280;50493;50.970;10.082;2024-02-21T08:17:20;99679.22;;;8.41;62.33
64189;BME280;50493;50.970;10.082;2024-02-21T08:19:45;99666.88;;;8.65;60.04
64189;BME280;50493;50.970;10.082;2024-02-21T08:22:12;99669.47;;;8.63;60.57
64189;BME280;50493;50.970;10.082;2024-02-21T08:24:37;99676.56;;;8.49;61.63
64189;BME280;50493;50.970;10.082;2024-02-21T08:27:04;99679.16;;;8.51;60.92
64189;BME280;50493;50.970;10.082;2024-02-21T08:29:29;99676.56;;;8.44;61.40
64189;BME280;50493;50.970;10.082;2024-02-21T08:31:54;99674.13;;;8.26;61.26
64189;BME280;50493;50.970;10.082;2024-02-21T08:34:20;99677.63;;;8.25;61.60
64189;BME280;50493;50.970;10.082;2024-02-21T08:36:45;99669.13;;;7.98;62.39
64189;BME280;50493;50.970;10.082;2024-02-21T08:39:12;99665.38;;;8.33;61.90
64189;BME280;50493;50.970;10.082;2024-02-21T08:41:41;99662.03;;;8.22;61.56
64189;BME280;50493;50.970;10.082;2024-02-21T08:44:07;99660.28;;;8.22;62.39
64189;BME280;50493;50.970;10.082;2024-02-21T08:46:32;99642.81;;;8.35;61.03
64189;BME280;50493;50.970;10.082;2024-02-21T08:48:57;99648.72;;;8.53;61.13
64189;BME280;50493;50.970;10.082;2024-02-21T08:51:23;99649.78;;;8.27;66.45
64189;BME280;50493;50.970;10.082;2024-02-21T08:53:48;99649.88;;;8.21;64.01
64189;BME280;50493;50.970;10.082;2024-02-21T08:56:16;99640.09;;;8.48;61.18
64189;BME280;50493;50.970;10.082;2024-02-21T08:58:41;99649.91;;;8.15;64.00
64189;BME280;50493;50.970;10.082;2024-02-21T09:01:07;99635.94;;;8.25;67.25
64189;BME280;50493;50.970;10.082;2024-02-21T09:03:35;99635.00;;;8.32;64.75
64189;BME280;50493;50.970;10.082;2024-02-21T09:06:01;99642.81;;;8.32;65.51
64189;BME280;50493;50.970;10.082;2024-02-21T09:08:27;99640.38;;;8.14;66.55
64189;BME280;50493;50.970;10.082;2024-02-21T09:10:52;99638.66;;;8.11;61.96
64189;BME280;50493;50.970;10.082;2024-02-21T09:13:19;99626.25;;;8.41;63.27
64189;BME280;50493;50.970;10.082;2024-02-21T09:15:44;99639.28;;;8.41;67.39
64189;BME280;50493;50.970;10.082;2024-02-21T09:18:10;99632.44;;;8.29;60.89
64189;BME280;50493;50.970;10.082;2024-02-21T09:20:35;99614.75;;;8.65;60.11
64189;BME280;50493;50.970;10.082;2024-02-21T09:23:00;99620.16;;;8.45;62.91
64189;BME280;50493;50.970;10.082;2024-02-21T09:25:26;99615.47;;;8.76;59.64
64189;BME280;50493;50.970;10.082;2024-02-21T09:27:53;99607.88;;;8.55;63.49
64189;BME280;50493;50.970;10.082;2024-02-21T09:30:20;99609.97;;;8.16;68.71
64189;BME280;50493;50.970;10.082;2024-02-21T09:32:46;99597.41;;;8.61;63.89
64189;BME280;50493;50.970;10.082;2024-02-21T09:35:11;99591.44;;;8.48;60.43
64189;BME280;50493;50.970;10.082;2024-02-21T09:37:37;99586.91;;;8.67;60.68
64189;BME280;50493;50.970;10.082;2024-02-21T09:40:03;99591.19;;;8.73;60.50
64189;BME280;50493;50.970;10.082;2024-02-21T09:42:36;99589.34;;;8.84;61.17
64189;BME280;50493;50.970;10.082;2024-02-21T09:45:03;99584.97;;;8.85;61.78
64189;BME280;50493;50.970;10.082;2024-02-21T09:47:40;99576.34;;;8.83;59.55
64189;BME280;50493;50.970;10.082;2024-02-21T09:50:07;99563.50;;;8.64;61.17
64189;BME280;50493;50.970;10.082;2024-02-21T09:52:34;99571.88;;;8.92;59.87
64189;BME280;50493;50.970;10.082;2024-02-21T09:55:01;99567.56;;;8.88;61.24
64189;BME280;50493;50.970;10.082;2024-02-21T09:57:26;99569.13;;;9.06;61.60
64189;BME280;50493;50.970;10.082;2024-02-21T09:59:55;99576.81;;;9.17;57.62
64189;BME280;50493;50.970;10.082;2024-02-21T10:02:21;99572.75;;;8.90;58.89
64189;BME280;50493;50.970;10.082;2024-02-21T10:04:48;99573.34;;;9.13;58.55
64189;BME280;50493;50.970;10.082;2024-02-21T10:07:14;99564.47;;;9.28;59.39
64189;BME280;50493;50.970;10.082;2024-02-21T10:09:39;99564.00;;;9.00;57.97
64189;BME280;50493;50.970;10.082;2024-02-21T10:12:09;99562.94;;;9.13;62.32
64189;BME280;50493;50.970;10.082;2024-02-21T10:14:35;99559.13;;;9.38;57.41
64189;BME280;50493;50.970;10.082;2024-02-21T10:17:01;99558.78;;;9.00;58.40
64189;BME280;50493;50.970;10.082;2024-02-21T10:19:27;99560.69;;;8.81;58.23
64189;BME280;50493;50.970;10.082;2024-02-21T10:22:01;99554.56;;;8.87;59.41
64189;BME280;50493;50.970;10.082;2024-02-21T10:24:28;99560.66;;;8.86;57.91
64189;BME280;50493;50.970;10.082;2024-02-21T10:26:59;99565.16;;;8.70;58.13
64189;BME280;50493;50.970;10.082;2024-02-21T10:29:24;99561.75;;;8.63;58.17
64189;BME280;50493;50.970;10.082;2024-02-21T10:31:49;99559.78;;;8.84;57.98
64189;BME280;50493;50.970;10.082;2024-02-21T10:34:16;99557.34;;;8.70;57.27
64189;BME280;50493;50.970;10.082;2024-02-21T10:36:43;99560.56;;;8.90;58.68
64189;BME280;50493;50.970;10.082;2024-02-21T10:39:09;99553.34;;;9.16;60.75
64189;BME280;50493;50.970;10.082;2024-02-21T10:41:36;99556.34;;;8.82;63.10
64189;BME280;50493;50.970;10.082;2024-02-21T10:44:05;99537.06;;;8.98;55.90
64189;BME280;50493;50.970;10.082;2024-02-21T10:46:32;99534.50;;;8.95;62.49
64189;BME280;50493;50.970;10.082;2024-02-21T10:49:06;99518.81;;;8.98;56.15
64189;BME280;50493;50.970;10.082;2024-02-21T10:51:33;99526.50;;;9.09;54.41
64189;BME280;50493;50.970;10.082;2024-02-21T10:54:07;99520.69;;;8.84;58.76
64189;BME280;50493;50.970;10.082;2024-02-21T10:56:38;99521.72;;;8.69;56.24
64189;BME280;50493;50.970;10.082;2024-02-21T10:59:06;99521.03;;;8.56;57.91
64189;BME280;50493;50.970;10.082;2024-02-21T11:01:32;99511.88;;;8.94;57.18
64189;BME280;50493;50.970;10.082;2024-02-21T11:03:59;99512.09;;;8.78;56.18
64189;BME280;50493;50.970;10.082;2024-02-21T11:06:26;99517.19;;;8.86;60.54
64189;BME280;50493;50.970;10.082;2024-02-21T11:09:01;99517.56;;;9.25;52.73
64189;BME280;50493;50.970;10.082;2024-02-21T11:11:28;99508.41;;;8.93;58.70
64189;BME280;50493;50.970;10.082;2024-02-21T11:14:03;99497.09;;;8.98;55.70
64189;BME280;50493;50.970;10.082;2024-02-21T11:16:35;99491.22;;;8.78;65.14
64189;BME280;50493;50.970;10.082;2024-02-21T11:19:04;99483.03;;;9.08;53.17
64189;BME280;50493;50.970;10.082;2024-02-21T11:21:33;99478.78;;;9.02;52.95
64189;BME280;50493;50.970;10.082;2024-02-21T11:23:59;99464.75;;;9.09;53.45
64189;BME280;50493;50.970;10.082;2024-02-21T11:26:28;99462.94;;;9.15;57.54
64189;BME280;50493;50.970;10.082;2024-02-21T11:28:59;99457.66;;;9.21;58.94
64189;BME280;50493;50.970;10.082;2024-02-21T11:31:25;99450.66;;;9.23;54.77
64189;BME280;50493;50.970;10.082;2024-02-21T11:33:54;99444.28;;;9.42;53.00
64189;BME280;50493;50.970;10.082;2024-02-21T11:36:26;99446.56;;;9.06;53.32
64189;BME280;50493;50.970;10.082;2024-02-21T11:38:52;99441.75;;;9.36;51.49
64189;BME280;50493;50.970;10.082;2024-02-21T11:41:18;99432.03;;;9.46;53.00
64189;BME280;50493;50.970;10.082;2024-02-21T11:43:43;99427.63;;;9.50;52.53
64189;BME280;50493;50.970;10.082;2024-02-21T11:46:10;99426.31;;;9.75;49.57
64189;BME280;50493;50.970;10.082;2024-02-21T11:48:35;99427.41;;;9.62;50.84
64189;BME280;50493;50.970;10.082;2024-02-21T11:51:01;99421.78;;;9.87;51.36
64189;BME280;50493;50.970;10.082;2024-02-21T11:53:29;99410.66;;;9.75;51.87
64189;BME280;50493;50.970;10.082;2024-02-21T11:55:56;99411.28;;;9.38;51.92
64189;BME280;50493;50.970;10.082;2024-02-21T11:58:22;99406.69;;;9.53;52.12
64189;BME280;50493;50.970;10.082;2024-02-21T12:00:47;99397.56;;;9.77;53.12
64189;BME280;50493;50.970;10.082;2024-02-21T12:03:14;99384.34;;;9.86;51.45
64189;BME280;50493;50.970;10.082;2024-02-21T12:05:41;99382.88;;;9.71;53.76
64189;BME280;50493;50.970;10.082;2024-02-21T12:08:07;99379.69;;;10.02;50.62
64189;BME280;50493;50.970;10.082;2024-02-21T12:10:33;99378.31;;;9.84;52.40
64189;BME280;50493;50.970;10.082;2024-02-21T12:13:07;99362.63;;;9.86;51.01
64189;BME280;50493;50.970;10.082;2024-02-21T12:15:33;99358.22;;;9.88;50.67
64189;BME280;50493;50.970;10.082;2024-02-21T12:17:58;99352.81;;;10.41;55.88
64189;BME280;50493;50.970;10.082;2024-02-21T12:20:26;99351.00;;;10.44;56.75
64189;BME280;50493;50.970;10.082;2024-02-21T12:22:52;99336.69;;;10.61;49.77
64189;BME280;50493;50.970;10.082;2024-02-21T12:25:20;99341.03;;;10.62;51.16
64189;BME280;50493;50.970;10.082;2024-02-21T12:27:48;99337.88;;;10.46;55.96
64189;BME280;50493;50.970;10.082;2024-02-21T12:30:14;99325.81;;;10.40;52.83
64189;BME280;50493;50.970;10.082;2024-02-21T12:32:39;99322.00;;;10.55;47.51
64189;BME280;50493;50.970;10.082;2024-02-21T12:35:07;99317.50;;;11.00;47.35
64189;BME280;50493;50.970;10.082;2024-02-21T12:37:39;99309.50;;;10.70;46.71
64189;BME280;50493;50.970;10.082;2024-02-21T12:40:05;99317.22;;;10.74;52.15
64189;BME280;50493;50.970;10.082;2024-02-21T12:42:32;99319.75;;;10.40;51.28
64189;BME280;50493;50.970;10.082;2024-02-21T12:44:58;99315.63;;;10.28;63.16
64189;BME280;50493;50.970;10.082;2024-02-21T12:50:20;99297.91;;;10.42;48.67
64189;BME280;50493;50.970;10.082;2024-02-21T12:52:47;99290.41;;;10.66;56.32
64189;BME280;50493;50.970;10.082;2024-02-21T12:55:15;99292.91;;;10.31;58.49
64189;BME280;50493;50.970;10.082;2024-02-21T12:57:43;99288.00;;;10.57;51.89